createdAt,value
2019-05-12T00:00:11.164Z,0
2019-05-12T00:01:10.313Z,0
2019-05-12T00:02:11.276Z,0
2019-05-12T00:03:10.371Z,0
2019-05-12T00:04:11.483Z,0
2019-05-12T00:05:11.518Z,0
2019-05-12T00:06:10.648Z,0
2019-05-12T00:07:10.644Z,0
2019-05-12T00:08:10.765Z,0
2019-05-12T00:09:10.879Z,0
2019-05-12T00:10:10.994Z,0
2019-05-12T00:11:11.094Z,0
2019-05-12T00:12:11.240Z,0
2019-05-12T00:13:12.333Z,0
2019-05-12T00:14:11.440Z,0
2019-05-12T00:15:11.542Z,0
2019-05-12T00:16:12.651Z,0
2019-05-12T00:17:11.796Z,0
2019-05-12T00:18:11.923Z,0
2019-05-12T00:19:12.041Z,0
2019-05-12T00:20:12.146Z,0
2019-05-12T00:21:12.267Z,0
2019-05-12T00:22:12.416Z,0
2019-05-12T00:23:23.681Z,0
2019-05-12T00:24:13.582Z,0
2019-05-12T00:25:12.708Z,0
2019-05-12T00:26:12.815Z,0
2019-05-12T00:27:12.960Z,0
2019-05-12T00:28:13.062Z,0
2019-05-12T00:29:13.185Z,0
2019-05-12T00:30:13.284Z,0
2019-05-12T00:31:13.375Z,0
2019-05-12T00:32:13.506Z,0
2019-05-12T00:33:13.618Z,0
2019-05-12T00:34:13.749Z,0
2019-05-12T00:35:13.922Z,0
2019-05-12T00:36:13.856Z,0
2019-05-12T00:37:14.108Z,0
2019-05-12T00:38:14.051Z,0
2019-05-12T00:39:14.156Z,0
2019-05-12T00:40:14.332Z,0
2019-05-12T00:41:18.001Z,0
2019-05-12T00:42:14.521Z,0
2019-05-12T00:43:14.663Z,0
2019-05-12T00:44:14.767Z,0
2019-05-12T00:45:14.899Z,0
2019-05-12T00:46:15.024Z,0
2019-05-12T00:47:15.137Z,0
2019-05-12T00:48:17.625Z,0
2019-05-12T00:49:15.425Z,0
2019-05-12T00:50:15.527Z,0
2019-05-12T00:51:17.999Z,0
2019-05-12T00:52:15.748Z,0
2019-05-12T00:53:15.897Z,0
2019-05-12T00:54:17.805Z,0
2019-05-12T00:55:18.267Z,0
2019-05-12T00:56:17.694Z,0
2019-05-12T00:57:18.135Z,0
2019-05-12T00:58:19.348Z,0
2019-05-12T00:59:18.753Z,0
2019-05-12T01:00:17.836Z,0
2019-05-12T01:01:18.343Z,0
2019-05-12T01:02:18.267Z,0
2019-05-12T01:03:18.816Z,0
2019-05-12T01:04:17.532Z,0
2019-05-12T01:05:17.676Z,0
2019-05-12T01:06:17.784Z,0
2019-05-12T01:07:18.306Z,0
2019-05-12T01:08:18.661Z,0
2019-05-12T01:09:17.684Z,0
2019-05-12T01:10:17.925Z,0
2019-05-12T01:11:17.832Z,0
2019-05-12T01:12:18.088Z,0
2019-05-12T01:13:18.591Z,0
2019-05-12T01:14:18.617Z,0
2019-05-12T01:15:17.937Z,0
2019-05-12T01:16:18.383Z,0
2019-05-12T01:17:18.155Z,0
2019-05-12T01:18:18.421Z,0
2019-05-12T01:19:18.737Z,0
2019-05-12T01:20:18.412Z,0
2019-05-12T01:21:18.586Z,0
2019-05-12T01:22:18.816Z,0
2019-05-12T01:23:21.381Z,0
2019-05-12T01:24:18.949Z,0
2019-05-12T01:25:19.010Z,0
2019-05-12T01:26:19.103Z,0
2019-05-12T01:27:19.213Z,0
2019-05-12T01:28:19.312Z,0
2019-05-12T01:29:19.475Z,0
2019-05-12T01:30:19.427Z,0
2019-05-12T01:31:19.545Z,0
2019-05-12T01:32:19.680Z,0
2019-05-12T01:33:19.712Z,0
2019-05-12T01:34:19.747Z,0
2019-05-12T01:35:19.871Z,0
2019-05-12T01:36:19.875Z,0
2019-05-12T01:37:20.021Z,0
2019-05-12T01:38:20.031Z,0
2019-05-12T01:39:20.173Z,0
2019-05-12T01:40:20.233Z,0
2019-05-12T01:41:20.288Z,0
2019-05-12T01:42:20.401Z,0
2019-05-12T01:43:21.129Z,0
2019-05-12T01:44:20.528Z,0
2019-05-12T01:45:20.599Z,0
2019-05-12T01:46:20.642Z,0
2019-05-12T01:47:20.764Z,0
2019-05-12T01:48:20.866Z,0
2019-05-12T01:49:21.006Z,0
2019-05-12T01:50:21.136Z,0
2019-05-12T01:51:21.131Z,0
2019-05-12T01:52:21.276Z,0
2019-05-12T01:53:21.399Z,0
2019-05-12T01:54:21.531Z,0
2019-05-12T01:55:21.670Z,0
2019-05-12T01:56:21.801Z,0
2019-05-12T01:57:21.788Z,0
2019-05-12T01:58:21.907Z,0
2019-05-12T01:59:21.945Z,0
2019-05-12T02:00:21.975Z,0
2019-05-12T02:01:21.996Z,0
2019-05-12T02:02:22.006Z,0
2019-05-12T02:03:22.119Z,0
2019-05-12T02:04:22.236Z,0
2019-05-12T02:05:22.342Z,0
2019-05-12T02:06:22.538Z,0
2019-05-12T02:07:22.501Z,0
2019-05-12T02:08:22.518Z,0
2019-05-12T02:09:22.667Z,0
2019-05-12T02:10:22.801Z,0
2019-05-12T02:11:22.965Z,0
2019-05-12T02:12:23.068Z,0
2019-05-12T02:13:23.156Z,0
2019-05-12T02:14:23.315Z,0
2019-05-12T02:15:23.421Z,0
2019-05-12T02:16:23.573Z,0
2019-05-12T02:17:23.535Z,0
2019-05-12T02:18:23.671Z,0
2019-05-12T02:19:23.793Z,0
2019-05-12T02:20:23.905Z,0
2019-05-12T02:21:24.035Z,0
2019-05-12T02:22:24.018Z,0
2019-05-12T02:23:24.142Z,0
2019-05-12T02:24:27.847Z,0
2019-05-12T02:25:24.357Z,0
2019-05-12T02:26:24.481Z,0
2019-05-12T02:27:24.601Z,0
2019-05-12T02:28:24.715Z,0
2019-05-12T02:29:24.821Z,0
2019-05-12T02:30:24.935Z,0
2019-05-12T02:31:25.057Z,0
2019-05-12T02:32:29.292Z,0
2019-05-12T02:33:25.267Z,0
2019-05-12T02:34:25.708Z,0
2019-05-12T02:35:25.517Z,0
2019-05-12T02:36:26.034Z,0
2019-05-12T02:37:26.313Z,0
2019-05-12T02:38:25.884Z,0
2019-05-12T02:39:25.992Z,0
2019-05-12T02:40:26.090Z,0
2019-05-12T02:41:26.384Z,0
2019-05-12T02:42:26.364Z,0
2019-05-12T02:43:26.470Z,0
2019-05-12T02:44:26.588Z,0
2019-05-12T02:45:26.676Z,0
2019-05-12T02:46:26.795Z,0
2019-05-12T02:47:26.919Z,0
2019-05-12T02:48:27.050Z,0
2019-05-12T02:49:27.187Z,0
2019-05-12T02:50:27.307Z,0
2019-05-12T02:51:27.421Z,0
2019-05-12T02:52:27.550Z,0
2019-05-12T02:53:27.661Z,0
2019-05-12T02:54:46.911Z,0
2019-05-12T02:55:27.821Z,0
2019-05-12T02:56:27.898Z,0
2019-05-12T02:57:28.027Z,0
2019-05-12T02:58:28.120Z,0
2019-05-12T02:59:28.237Z,0
2019-05-12T03:00:28.340Z,0
2019-05-12T03:01:28.490Z,0
2019-05-12T03:02:28.660Z,0
2019-05-12T03:03:28.788Z,0
2019-05-12T03:04:28.888Z,0
2019-05-12T03:05:28.908Z,0
2019-05-12T03:06:29.044Z,0
2019-05-12T03:07:29.081Z,0
2019-05-12T03:08:29.059Z,0
2019-05-12T03:09:29.208Z,0
2019-05-12T03:10:29.315Z,0
2019-05-12T03:11:29.443Z,0
2019-05-12T03:12:29.514Z,0
2019-05-12T03:13:29.648Z,0
2019-05-12T03:14:29.629Z,0
2019-05-12T03:15:29.718Z,0
2019-05-12T03:16:29.967Z,0
2019-05-12T03:17:29.941Z,0
2019-05-12T03:18:30.040Z,0
2019-05-12T03:19:29.997Z,0
2019-05-12T03:20:30.090Z,0
2019-05-12T03:21:31.211Z,0
2019-05-12T03:22:30.246Z,0
2019-05-12T03:23:30.521Z,0
2019-05-12T03:24:33.893Z,0
2019-05-12T03:25:30.499Z,0
2019-05-12T03:26:30.494Z,0
2019-05-12T03:27:30.622Z,0
2019-05-12T03:28:30.690Z,0
2019-05-12T03:29:30.776Z,0
2019-05-12T03:30:30.830Z,0
2019-05-12T03:31:32.048Z,0
2019-05-12T03:32:30.908Z,0
2019-05-12T03:33:35.648Z,0
2019-05-12T03:34:30.949Z,0
2019-05-12T03:35:34.806Z,0
2019-05-12T03:36:34.382Z,0
2019-05-12T03:37:31.447Z,0
2019-05-12T03:38:31.082Z,0
2019-05-12T03:39:34.108Z,0
2019-05-12T03:40:31.174Z,0
2019-05-12T03:41:31.298Z,0
2019-05-12T03:42:31.405Z,0
2019-05-12T03:43:35.023Z,0
2019-05-12T03:44:31.532Z,0
2019-05-12T03:45:31.511Z,0
2019-05-12T03:46:34.894Z,0
2019-05-12T03:47:31.644Z,0
2019-05-12T03:48:34.573Z,0
2019-05-12T03:49:34.694Z,5.625
2019-05-12T03:50:35.192Z,5.625
2019-05-12T03:51:34.848Z,5.625
2019-05-12T03:52:34.898Z,5.625
2019-05-12T03:53:35.157Z,5.625
2019-05-12T03:54:34.884Z,5.625
2019-05-12T03:55:37.651Z,5.625
2019-05-12T03:56:34.439Z,5.625
2019-05-12T03:57:34.468Z,5.625
2019-05-12T03:58:34.514Z,5.625
2019-05-12T03:59:34.746Z,5.625
2019-05-12T04:00:35.668Z,5.625
2019-05-12T04:01:36.210Z,11.25
2019-05-12T04:02:34.027Z,11.25
2019-05-12T04:03:34.493Z,11.25
2019-05-12T04:04:34.734Z,11.25
2019-05-12T04:05:34.809Z,11.25
2019-05-12T04:06:34.564Z,11.25
2019-05-12T04:07:34.409Z,11.25
2019-05-12T04:08:34.636Z,11.25
2019-05-12T04:09:34.791Z,11.25
2019-05-12T04:10:35.281Z,11.25
2019-05-12T04:11:35.593Z,11.25
2019-05-12T04:12:34.719Z,16.875
2019-05-12T04:13:34.356Z,16.875
2019-05-12T04:14:34.616Z,16.875
2019-05-12T04:15:35.108Z,16.875
2019-05-12T04:16:36.205Z,16.875
2019-05-12T04:17:35.037Z,16.875
2019-05-12T04:18:35.099Z,16.875
2019-05-12T04:19:34.620Z,16.875
2019-05-12T04:20:35.871Z,16.875
2019-05-12T04:21:35.377Z,22.5
2019-05-12T04:22:35.898Z,22.5
2019-05-12T04:23:35.089Z,22.5
2019-05-12T04:24:36.076Z,22.5
2019-05-12T04:25:47.552Z,22.5
2019-05-12T04:26:36.571Z,22.5
2019-05-12T04:27:35.271Z,22.5
2019-05-12T04:28:35.355Z,22.5
2019-05-12T04:29:35.445Z,28.125
2019-05-12T04:30:36.033Z,28.125
2019-05-12T04:31:36.621Z,28.125
2019-05-12T04:32:36.006Z,28.125
2019-05-12T04:33:35.833Z,28.125
2019-05-12T04:34:35.919Z,28.125
2019-05-12T04:35:36.164Z,28.125
2019-05-12T04:36:36.110Z,33.75
2019-05-12T04:37:36.045Z,33.75
2019-05-12T04:38:36.065Z,33.75
2019-05-12T04:39:36.157Z,33.75
2019-05-12T04:40:36.528Z,33.75
2019-05-12T04:41:36.317Z,33.75
2019-05-12T04:42:36.485Z,33.75
2019-05-12T04:43:36.538Z,33.75
2019-05-12T04:44:36.644Z,39.375
2019-05-12T04:45:36.824Z,39.375
2019-05-12T04:46:36.804Z,39.375
2019-05-12T04:47:36.906Z,33.75
2019-05-12T04:48:37.036Z,39.375
2019-05-12T04:49:37.100Z,39.375
2019-05-12T04:50:37.178Z,39.375
2019-05-12T04:51:37.266Z,45
2019-05-12T04:52:37.364Z,39.375
2019-05-12T04:53:37.502Z,39.375
2019-05-12T04:54:37.547Z,45
2019-05-12T04:55:37.700Z,45
2019-05-12T04:56:37.673Z,45
2019-05-12T04:57:37.747Z,50.625
2019-05-12T04:58:37.862Z,50.625
2019-05-12T04:59:37.923Z,45
2019-05-12T05:00:38.024Z,45
2019-05-12T05:01:38.220Z,50.625
2019-05-12T05:02:38.285Z,50.625
2019-05-12T05:03:38.424Z,50.625
2019-05-12T05:04:38.506Z,50.625
2019-05-12T05:05:38.583Z,50.625
2019-05-12T05:06:38.725Z,50.625
2019-05-12T05:07:38.811Z,45
2019-05-12T05:08:38.868Z,45
2019-05-12T05:09:38.967Z,39.375
2019-05-12T05:10:39.064Z,50.625
2019-05-12T05:11:39.312Z,56.25
2019-05-12T05:12:39.263Z,50.625
2019-05-12T05:13:39.828Z,56.25
2019-05-12T05:14:39.360Z,61.875
2019-05-12T05:15:39.437Z,56.25
2019-05-12T05:16:39.640Z,61.875
2019-05-12T05:17:39.539Z,67.5
2019-05-12T05:18:40.871Z,67.5
2019-05-12T05:19:39.682Z,67.5
2019-05-12T05:20:39.764Z,67.5
2019-05-12T05:21:39.895Z,73.125
2019-05-12T05:22:39.991Z,67.5
2019-05-12T05:23:40.075Z,61.875
2019-05-12T05:24:41.151Z,61.875
2019-05-12T05:25:40.197Z,67.5
2019-05-12T05:26:40.271Z,67.5
2019-05-12T05:27:40.400Z,67.5
2019-05-12T05:28:40.350Z,73.125
2019-05-12T05:29:40.444Z,73.125
2019-05-12T05:30:40.502Z,67.5
2019-05-12T05:31:40.613Z,61.875
2019-05-12T05:32:40.756Z,61.875
2019-05-12T05:33:43.291Z,67.5
2019-05-12T05:34:45.805Z,73.125
2019-05-12T05:35:41.051Z,84.375
2019-05-12T05:36:42.847Z,84.375
2019-05-12T05:37:43.647Z,90
2019-05-12T05:38:43.444Z,90
2019-05-12T05:39:44.187Z,90
2019-05-12T05:40:43.377Z,90
2019-05-12T05:41:46.275Z,90
2019-05-12T05:42:43.870Z,90
2019-05-12T05:43:43.746Z,84.375
2019-05-12T05:44:43.451Z,84.375
2019-05-12T05:45:43.797Z,90
2019-05-12T05:46:45.354Z,84.375
2019-05-12T05:47:44.223Z,90
2019-05-12T05:48:43.880Z,90
2019-05-12T05:49:43.393Z,84.375
2019-05-12T05:50:43.814Z,90
2019-05-12T05:51:46.037Z,90
2019-05-12T05:52:43.717Z,90
2019-05-12T05:53:44.169Z,90
2019-05-12T05:54:43.962Z,95.625
2019-05-12T05:55:44.203Z,90
2019-05-12T05:56:56.840Z,90
2019-05-12T05:57:44.325Z,90
2019-05-12T05:58:46.792Z,95.625
2019-05-12T05:59:44.655Z,106.875
2019-05-12T06:00:43.436Z,95.625
2019-05-12T06:01:46.698Z,106.875
2019-05-12T06:02:44.075Z,101.25
2019-05-12T06:03:44.079Z,106.875
2019-05-12T06:04:45.248Z,101.25
2019-05-12T06:05:44.258Z,101.25
2019-05-12T06:06:50.470Z,106.875
2019-05-12T06:07:44.544Z,106.875
2019-05-12T06:08:44.751Z,106.875
2019-05-12T06:09:43.729Z,106.875
2019-05-12T06:10:43.862Z,106.875
2019-05-12T06:11:43.900Z,95.625
2019-05-12T06:12:46.249Z,106.875
2019-05-12T06:13:44.353Z,123.75
2019-05-12T06:14:46.550Z,123.75
2019-05-12T06:15:45.189Z,129.375
2019-05-12T06:16:44.351Z,123.75
2019-05-12T06:17:44.378Z,123.75
2019-05-12T06:18:44.434Z,112.5
2019-05-12T06:19:44.438Z,118.125
2019-05-12T06:20:44.451Z,118.125
2019-05-12T06:21:44.447Z,118.125
2019-05-12T06:22:48.512Z,106.875
2019-05-12T06:23:45.778Z,112.5
2019-05-12T06:24:49.028Z,112.5
2019-05-12T06:25:51.296Z,101.25
2019-05-12T06:26:56.364Z,112.5
2019-05-12T06:27:45.068Z,123.75
2019-05-12T06:28:45.235Z,140.625
2019-05-12T06:29:45.288Z,135
2019-05-12T06:30:49.429Z,140.625
2019-05-12T06:31:45.430Z,146.25
2019-05-12T06:32:49.648Z,140.625
2019-05-12T06:33:45.587Z,129.375
2019-05-12T06:34:45.724Z,135
2019-05-12T06:35:45.700Z,140.625
2019-05-12T06:36:45.879Z,140.625
2019-05-12T06:37:57.012Z,140.625
2019-05-12T06:38:46.052Z,135
2019-05-12T06:39:46.101Z,135
2019-05-12T06:40:46.089Z,135
2019-05-12T06:41:46.241Z,135
2019-05-12T06:42:48.293Z,140.625
2019-05-12T06:43:46.391Z,146.25
2019-05-12T06:44:48.835Z,146.25
2019-05-12T06:45:46.398Z,157.5
2019-05-12T06:46:46.405Z,163.125
2019-05-12T06:47:49.579Z,163.125
2019-05-12T06:48:46.671Z,157.5
2019-05-12T06:49:48.716Z,163.125
2019-05-12T06:50:47.036Z,163.125
2019-05-12T06:51:48.053Z,157.5
2019-05-12T06:52:49.070Z,151.875
2019-05-12T06:53:47.237Z,157.5
2019-05-12T06:54:51.114Z,163.125
2019-05-12T06:55:47.465Z,163.125
2019-05-12T06:56:49.949Z,185.625
2019-05-12T06:57:50.074Z,174.375
2019-05-12T06:58:47.759Z,146.25
2019-05-12T06:59:51.106Z,140.625
2019-05-12T07:00:47.797Z,135
2019-05-12T07:01:49.768Z,129.375
2019-05-12T07:02:52.164Z,123.75
2019-05-12T07:03:47.940Z,112.5
2019-05-12T07:04:54.187Z,112.5
2019-05-12T07:05:47.954Z,123.75
2019-05-12T07:06:49.740Z,146.25
2019-05-12T07:07:48.118Z,174.375
2019-05-12T07:09:01.260Z,174.375
2019-05-12T07:09:53.700Z,180
2019-05-12T07:10:57.289Z,168.75
2019-05-12T07:11:58.638Z,146.25
2019-05-12T07:12:58.710Z,135
2019-05-12T07:14:01.178Z,118.125
2019-05-12T07:14:49.077Z,118.125
2019-05-12T07:15:48.970Z,129.375
2019-05-12T07:16:53.210Z,135
2019-05-12T07:17:49.967Z,135
2019-05-12T07:18:49.285Z,140.625
2019-05-12T07:19:54.558Z,157.5
2019-05-12T07:20:49.522Z,146.25
2019-05-12T07:21:50.585Z,146.25
2019-05-12T07:22:49.649Z,151.875
2019-05-12T07:23:49.810Z,146.25
2019-05-12T07:24:52.711Z,146.25
2019-05-12T07:25:49.977Z,129.375
2019-05-12T07:26:54.273Z,118.125
2019-05-12T07:27:54.735Z,118.125
2019-05-12T07:28:50.146Z,146.25
2019-05-12T07:29:50.289Z,292.5
2019-05-12T07:30:50.302Z,748.125
2019-05-12T07:31:50.309Z,748.125
2019-05-12T07:32:51.084Z,1012.5
2019-05-12T07:33:54.122Z,821.25
2019-05-12T07:34:50.442Z,691.875
2019-05-12T07:35:53.082Z,528.75
2019-05-12T07:36:53.324Z,528.75
2019-05-12T07:37:50.458Z,455.625
2019-05-12T07:38:55.126Z,725.625
2019-05-12T07:39:53.512Z,410.625
2019-05-12T07:40:50.779Z,663.75
2019-05-12T07:41:52.583Z,1068.75
2019-05-12T07:42:50.918Z,990
2019-05-12T07:43:56.608Z,1125
2019-05-12T07:44:54.256Z,1153.125
2019-05-12T07:45:53.762Z,1074.375
2019-05-12T07:46:51.071Z,1068.75
2019-05-12T07:47:51.231Z,1192.5
2019-05-12T07:48:51.232Z,1209.375
2019-05-12T07:49:53.602Z,1254.375
2019-05-12T07:50:56.243Z,1282.5
2019-05-12T07:51:54.173Z,1276.875
2019-05-12T07:52:51.243Z,1305
2019-05-12T07:53:55.072Z,556.875
2019-05-12T07:54:55.350Z,483.75
2019-05-12T07:55:53.211Z,1327.5
2019-05-12T07:56:53.955Z,1372.5
2019-05-12T07:57:55.908Z,1260
2019-05-12T07:58:54.690Z,174.375
2019-05-12T07:59:54.014Z,579.375
2019-05-12T08:00:53.760Z,568.125
2019-05-12T08:01:54.373Z,630
2019-05-12T08:02:53.966Z,191.25
2019-05-12T08:03:57.057Z,146.25
2019-05-12T08:04:54.108Z,140.625
2019-05-12T08:05:57.257Z,337.5
2019-05-12T08:06:53.790Z,146.25
2019-05-12T08:07:53.527Z,157.5
2019-05-12T08:08:56.266Z,151.875
2019-05-12T08:09:53.622Z,140.625
2019-05-12T08:10:55.822Z,135
2019-05-12T08:11:54.018Z,140.625
2019-05-12T08:12:58.888Z,146.25
2019-05-12T08:13:54.212Z,140.625
2019-05-12T08:14:54.154Z,151.875
2019-05-12T08:15:53.832Z,174.375
2019-05-12T08:16:54.249Z,196.875
2019-05-12T08:17:55.184Z,466.875
2019-05-12T08:18:53.515Z,253.125
2019-05-12T08:19:53.594Z,618.75
2019-05-12T08:20:53.877Z,236.25
2019-05-12T08:21:53.702Z,225
2019-05-12T08:22:54.112Z,202.5
2019-05-12T08:23:54.342Z,180
2019-05-12T08:24:53.814Z,185.625
2019-05-12T08:25:54.108Z,191.25
2019-05-12T08:26:59.447Z,196.875
2019-05-12T08:28:04.122Z,213.75
2019-05-12T08:28:54.435Z,326.25
2019-05-12T08:30:00.862Z,489.375
2019-05-12T08:30:54.801Z,331.875
2019-05-12T08:31:54.794Z,770.625
2019-05-12T08:32:54.429Z,545.625
2019-05-12T08:33:53.841Z,585
2019-05-12T08:34:54.158Z,258.75
2019-05-12T08:35:55.307Z,185.625
2019-05-12T08:36:57.771Z,196.875
2019-05-12T08:37:54.398Z,174.375
2019-05-12T08:38:53.787Z,168.75
2019-05-12T08:40:03.095Z,174.375
2019-05-12T08:40:54.345Z,185.625
2019-05-12T08:41:53.991Z,208.125
2019-05-12T08:42:54.078Z,213.75
2019-05-12T08:43:58.036Z,208.125
2019-05-12T08:44:54.278Z,208.125
2019-05-12T08:45:54.049Z,230.625
2019-05-12T08:46:56.489Z,219.375
2019-05-12T08:47:54.669Z,196.875
2019-05-12T08:48:57.685Z,427.5
2019-05-12T08:49:57.865Z,174.375
2019-05-12T08:50:54.765Z,208.125
2019-05-12T08:51:55.644Z,241.875
2019-05-12T08:52:54.392Z,236.25
2019-05-12T08:54:02.279Z,185.625
2019-05-12T08:54:54.548Z,202.5
2019-05-12T08:55:54.532Z,208.125
2019-05-12T08:56:56.927Z,247.5
2019-05-12T08:57:54.845Z,303.75
2019-05-12T08:58:54.887Z,264.375
2019-05-12T09:00:02.685Z,270
2019-05-12T09:00:55.060Z,281.25
2019-05-12T09:01:55.086Z,225
2019-05-12T09:02:55.081Z,219.375
2019-05-12T09:03:55.096Z,219.375
2019-05-12T09:04:55.663Z,213.75
2019-05-12T09:05:55.120Z,219.375
2019-05-12T09:06:58.239Z,236.25
2019-05-12T09:07:55.274Z,225
2019-05-12T09:08:55.403Z,264.375
2019-05-12T09:09:55.426Z,298.125
2019-05-12T09:10:55.670Z,292.5
2019-05-12T09:11:55.503Z,264.375
2019-05-12T09:12:55.490Z,270
2019-05-12T09:14:00.297Z,320.625
2019-05-12T09:14:55.480Z,253.125
2019-05-12T09:15:55.511Z,219.375
2019-05-12T09:17:02.143Z,202.5
2019-05-12T09:17:56.936Z,208.125
2019-05-12T09:18:55.706Z,219.375
2019-05-12T09:20:03.447Z,202.5
2019-05-12T09:20:55.960Z,174.375
2019-05-12T09:21:55.866Z,163.125
2019-05-12T09:23:00.507Z,151.875
2019-05-12T09:23:56.183Z,151.875
2019-05-12T09:24:58.312Z,180
2019-05-12T09:25:57.386Z,208.125
2019-05-12T09:26:58.880Z,258.75
2019-05-12T09:27:56.002Z,337.5
2019-05-12T09:28:56.085Z,348.75
2019-05-12T09:29:59.017Z,326.25
2019-05-12T09:30:56.173Z,270
2019-05-12T09:31:59.116Z,230.625
2019-05-12T09:32:56.205Z,241.875
2019-05-12T09:33:57.889Z,247.5
2019-05-12T09:34:58.133Z,236.25
2019-05-12T09:35:56.428Z,180
2019-05-12T09:36:59.438Z,416.25
2019-05-12T09:37:56.456Z,140.625
2019-05-12T09:39:01.385Z,140.625
2019-05-12T09:39:56.498Z,151.875
2019-05-12T09:41:00.680Z,163.125
2019-05-12T09:41:56.792Z,253.125
2019-05-12T09:43:00.128Z,275.625
2019-05-12T09:43:56.851Z,298.125
2019-05-12T09:44:59.911Z,202.5
2019-05-12T09:45:56.882Z,180
2019-05-12T09:46:57.071Z,196.875
2019-05-12T09:47:58.784Z,208.125
2019-05-12T09:48:57.219Z,202.5
2019-05-12T09:49:57.270Z,202.5
2019-05-12T09:51:01.990Z,241.875
2019-05-12T09:51:57.425Z,421.875
2019-05-12T09:53:00.688Z,270
2019-05-12T09:53:57.544Z,253.125
2019-05-12T09:54:57.587Z,376.875
2019-05-12T09:55:58.549Z,253.125
2019-05-12T09:56:59.452Z,236.25
2019-05-12T09:57:57.778Z,253.125
2019-05-12T09:59:01.714Z,230.625
2019-05-12T09:59:59.622Z,354.375
2019-05-12T10:00:57.903Z,326.25
2019-05-12T10:01:57.919Z,331.875
2019-05-12T10:03:00.452Z,253.125
2019-05-12T10:03:58.018Z,258.75
2019-05-12T10:05:00.666Z,253.125
2019-05-12T10:05:58.054Z,258.75
2019-05-12T10:06:58.068Z,247.5
2019-05-12T10:07:58.066Z,270
2019-05-12T10:08:59.222Z,303.75
2019-05-12T10:09:59.138Z,315
2019-05-12T10:10:58.232Z,298.125
2019-05-12T10:12:00.451Z,298.125
2019-05-12T10:12:58.377Z,264.375
2019-05-12T10:14:00.151Z,258.75
2019-05-12T10:14:58.540Z,241.875
2019-05-12T10:16:03.648Z,247.5
2019-05-12T10:16:58.546Z,320.625
2019-05-12T10:18:00.092Z,405
2019-05-12T10:18:58.710Z,405
2019-05-12T10:19:58.689Z,382.5
2019-05-12T10:20:58.937Z,343.125
2019-05-12T10:21:59.620Z,376.875
2019-05-12T10:22:58.943Z,2081.25
2019-05-12T10:24:01.720Z,315
2019-05-12T10:24:59.232Z,202.5
2019-05-12T10:26:01.315Z,466.875
2019-05-12T10:26:59.411Z,2115
2019-05-12T10:28:02.837Z,2081.25
2019-05-12T10:29:12.547Z,2064.375
2019-05-12T10:30:03.096Z,2081.25
2019-05-12T10:30:59.707Z,2143.125
2019-05-12T10:31:59.738Z,2165.625
2019-05-12T10:32:59.757Z,2160
2019-05-12T10:33:59.749Z,2126.25
2019-05-12T10:34:59.927Z,2148.75
2019-05-12T10:36:05.058Z,2182.5
2019-05-12T10:36:59.995Z,905.625
2019-05-12T10:38:04.961Z,2120.625
2019-05-12T10:39:00.157Z,2120.625
2019-05-12T10:40:00.184Z,736.875
2019-05-12T10:41:00.248Z,405
2019-05-12T10:42:00.262Z,495
2019-05-12T10:43:00.262Z,2137.5
2019-05-12T10:44:00.264Z,1541.25
2019-05-12T10:45:00.255Z,320.625
2019-05-12T10:46:00.430Z,258.75
2019-05-12T10:47:00.293Z,247.5
2019-05-12T10:48:00.322Z,258.75
2019-05-12T10:49:00.320Z,264.375
2019-05-12T10:50:00.323Z,292.5
2019-05-12T10:51:00.379Z,2115
2019-05-12T10:52:00.402Z,2098.125
2019-05-12T10:53:00.400Z,2070
2019-05-12T10:54:07.688Z,2013.75
2019-05-12T10:55:00.551Z,1963.125
2019-05-12T10:56:00.594Z,2002.5
2019-05-12T10:57:00.602Z,2086.875
2019-05-12T10:58:01.703Z,2109.375
2019-05-12T10:59:00.735Z,2131.875
2019-05-12T11:00:00.750Z,2205
2019-05-12T11:01:04.967Z,2283.75
2019-05-12T11:02:00.828Z,2255.625
2019-05-12T11:03:01.406Z,1305
2019-05-12T11:04:01.032Z,2373.75
2019-05-12T11:05:01.046Z,478.125
2019-05-12T11:06:04.829Z,315
2019-05-12T11:07:01.228Z,230.625
2019-05-12T11:08:06.272Z,219.375
2019-05-12T11:09:03.583Z,241.875
2019-05-12T11:10:02.889Z,258.75
2019-05-12T11:11:01.352Z,281.25
2019-05-12T11:12:03.353Z,320.625
2019-05-12T11:13:05.692Z,360
2019-05-12T11:14:03.787Z,410.625
2019-05-12T11:15:06.335Z,511.875
2019-05-12T11:16:03.758Z,1186.875
2019-05-12T11:17:01.997Z,438.75
2019-05-12T11:18:01.515Z,495
2019-05-12T11:19:06.224Z,399.375
2019-05-12T11:20:03.949Z,630
2019-05-12T11:21:03.417Z,849.375
2019-05-12T11:22:03.613Z,393.75
2019-05-12T11:23:03.460Z,393.75
2019-05-12T11:24:03.716Z,2115
2019-05-12T11:25:04.066Z,2092.5
2019-05-12T11:26:03.685Z,2070
2019-05-12T11:27:03.894Z,2092.5
2019-05-12T11:28:03.610Z,2120.625
2019-05-12T11:29:03.647Z,2188.125
2019-05-12T11:30:04.057Z,2250
2019-05-12T11:31:01.797Z,973.125
2019-05-12T11:32:01.825Z,596.25
2019-05-12T11:33:04.017Z,1462.5
2019-05-12T11:34:02.631Z,326.25
2019-05-12T11:35:03.848Z,281.25
2019-05-12T11:36:04.240Z,264.375
2019-05-12T11:37:03.374Z,253.125
2019-05-12T11:38:04.105Z,264.375
2019-05-12T11:39:03.661Z,292.5
2019-05-12T11:40:04.156Z,495
2019-05-12T11:41:04.094Z,534.375
2019-05-12T11:42:03.697Z,1811.25
2019-05-12T11:43:04.026Z,2058.75
2019-05-12T11:44:03.952Z,1074.375
2019-05-12T11:45:02.233Z,1147.5
2019-05-12T11:46:02.297Z,517.5
2019-05-12T11:47:03.621Z,1603.125
2019-05-12T11:48:05.702Z,1434.375
2019-05-12T11:49:04.260Z,2126.25
2019-05-12T11:50:04.817Z,2098.125
2019-05-12T11:51:03.870Z,2188.125
2019-05-12T11:52:07.181Z,2182.5
2019-05-12T11:53:04.157Z,2250
2019-05-12T11:54:03.389Z,1209.375
2019-05-12T11:55:02.843Z,208.125
2019-05-12T11:56:07.509Z,202.5
2019-05-12T11:57:03.004Z,196.875
2019-05-12T11:58:06.598Z,208.125
2019-05-12T11:59:04.033Z,247.5
2019-05-12T12:00:05.283Z,1378.125
2019-05-12T12:01:04.466Z,1991.25
2019-05-12T12:02:03.360Z,2092.5
2019-05-12T12:03:12.271Z,2216.25
2019-05-12T12:04:04.417Z,410.625
2019-05-12T12:05:03.444Z,725.625
2019-05-12T12:06:03.461Z,562.5
2019-05-12T12:07:03.459Z,309.375
2019-05-12T12:08:04.071Z,253.125
2019-05-12T12:09:03.981Z,253.125
2019-05-12T12:10:03.793Z,2120.625
2019-05-12T12:11:03.986Z,2103.75
2019-05-12T12:12:07.148Z,2103.75
2019-05-12T12:13:03.900Z,2070
2019-05-12T12:14:06.223Z,2081.25
2019-05-12T12:15:04.656Z,2160
2019-05-12T12:16:06.727Z,2160
2019-05-12T12:17:04.074Z,2176.875
2019-05-12T12:18:12.926Z,450
2019-05-12T12:19:05.743Z,2165.625
2019-05-12T12:20:04.251Z,2137.5
2019-05-12T12:21:07.480Z,2148.75
2019-05-12T12:22:04.415Z,2143.125
2019-05-12T12:23:10.493Z,2137.5
2019-05-12T12:24:04.447Z,2115
2019-05-12T12:25:10.595Z,2120.625
2019-05-12T12:26:04.452Z,2120.625
2019-05-12T12:27:04.475Z,2070
2019-05-12T12:28:04.699Z,1918.125
2019-05-12T12:29:04.623Z,1203.75
2019-05-12T12:30:15.644Z,2070
2019-05-12T12:31:07.590Z,2075.625
2019-05-12T12:32:04.665Z,461.25
2019-05-12T12:33:04.660Z,2171.25
2019-05-12T12:34:04.835Z,2160
2019-05-12T12:35:06.965Z,2008.125
2019-05-12T12:36:05.061Z,2148.75
2019-05-12T12:37:05.098Z,2126.25
2019-05-12T12:38:05.098Z,2126.25
2019-05-12T12:39:05.121Z,2148.75
2019-05-12T12:40:05.169Z,2126.25
2019-05-12T12:41:05.183Z,2047.5
2019-05-12T12:42:05.202Z,1946.25
2019-05-12T12:43:05.233Z,1884.375
2019-05-12T12:44:05.268Z,1873.125
2019-05-12T12:45:05.277Z,1940.625
2019-05-12T12:46:10.456Z,2047.5
2019-05-12T12:47:05.374Z,2199.375
2019-05-12T12:48:05.418Z,1023.75
2019-05-12T12:49:06.253Z,562.5
2019-05-12T12:50:05.427Z,613.125
2019-05-12T12:51:06.544Z,1029.375
2019-05-12T12:52:05.579Z,2334.375
2019-05-12T12:53:05.647Z,562.5
2019-05-12T12:54:05.679Z,2053.125
2019-05-12T12:55:08.401Z,444.375
2019-05-12T12:56:05.723Z,376.875
2019-05-12T12:57:09.487Z,343.125
2019-05-12T12:58:05.746Z,1276.875
2019-05-12T12:59:10.075Z,1198.125
2019-05-12T13:00:05.842Z,1080
2019-05-12T13:01:05.860Z,607.5
2019-05-12T13:02:08.868Z,1490.625
2019-05-12T13:03:06.047Z,635.625
2019-05-12T13:04:06.507Z,416.25
2019-05-12T13:05:07.227Z,354.375
2019-05-12T13:06:06.298Z,354.375
2019-05-12T13:07:07.296Z,320.625